createdAt,value
2023-07-14T00:01:53.998Z,21.33
2023-07-14T00:04:33.278Z,21.10
2023-07-14T00:07:01.034Z,21.03
2023-07-14T00:09:30.434Z,20.86
2023-07-14T00:11:58.053Z,20.98
2023-07-14T00:14:25.436Z,21.30
2023-07-14T00:16:53.985Z,21.07
2023-07-14T00:19:21.406Z,21.29
2023-07-14T00:21:48.541Z,21.04
2023-07-14T00:24:17.680Z,21.05
2023-07-14T00:26:51.529Z,20.99
2023-07-14T00:29:27.355Z,21.02
2023-07-14T00:31:54.371Z,20.89
2023-07-14T00:34:21.207Z,20.56
2023-07-14T00:36:47.922Z,20.47
2023-07-14T00:39:14.527Z,20.76
2023-07-14T00:41:41.144Z,20.69
2023-07-14T00:44:14.853Z,20.94
2023-07-14T00:46:42.448Z,20.88
2023-07-14T00:49:16.366Z,20.99
2023-07-14T00:51:45.001Z,21.02
2023-07-14T00:54:30.053Z,21.07
2023-07-14T00:56:57.637Z,20.93
2023-07-14T00:59:34.320Z,20.98
2023-07-14T01:02:10.434Z,20.63
2023-07-14T01:04:42.351Z,20.45
2023-07-14T01:07:11.736Z,20.41
2023-07-14T01:09:39.411Z,20.66
2023-07-14T01:12:08.402Z,20.51
2023-07-14T01:14:43.391Z,20.82
2023-07-14T01:17:10.913Z,20.74
2023-07-14T01:19:44.630Z,20.48
2023-07-14T01:22:31.555Z,20.30
2023-07-14T01:25:11.815Z,20.55
2023-07-14T01:27:38.649Z,20.48
2023-07-14T01:30:05.832Z,20.04
2023-07-14T01:32:50.159Z,20.10
2023-07-14T01:35:19.330Z,20.07
2023-07-14T01:37:46.897Z,19.92
2023-07-14T01:40:17.578Z,20.13
2023-07-14T01:42:49.156Z,19.89
2023-07-14T01:45:19.543Z,19.85
2023-07-14T01:47:51.570Z,19.90
2023-07-14T01:50:23.976Z,19.91
2023-07-14T01:52:57.033Z,19.82
2023-07-14T01:55:25.654Z,19.63
2023-07-14T01:57:56.379Z,19.44
2023-07-14T02:00:23.644Z,19.74
2023-07-14T02:02:50.968Z,19.85
2023-07-14T02:05:30.430Z,20.01
2023-07-14T02:08:00.564Z,19.68
2023-07-14T02:10:27.203Z,19.82
2023-07-14T02:12:55.016Z,20.04
2023-07-14T02:15:27.769Z,19.80
2023-07-14T02:17:55.510Z,19.81
2023-07-14T02:20:38.594Z,19.66
2023-07-14T02:23:09.544Z,19.40
2023-07-14T02:25:44.304Z,19.38
2023-07-14T02:28:11.826Z,19.38
2023-07-14T02:30:39.496Z,19.22
2023-07-14T02:33:11.045Z,19.08
2023-07-14T02:35:45.163Z,19.18
2023-07-14T02:38:14.047Z,19.22
2023-07-14T02:41:20.883Z,19.43
2023-07-14T02:43:55.534Z,19.71
2023-07-14T02:46:27.412Z,19.82
2023-07-14T02:48:54.732Z,20.05
2023-07-14T02:51:21.962Z,20.11
2023-07-14T02:53:48.615Z,20.07
2023-07-14T02:56:15.281Z,20.22
2023-07-14T02:58:44.326Z,20.13
2023-07-14T03:01:11.167Z,20.20
2023-07-14T03:03:39.489Z,20.23
2023-07-14T03:06:06.349Z,20.04
2023-07-14T03:08:33.003Z,20.30
2023-07-14T03:11:00.753Z,20.54
2023-07-14T03:13:27.744Z,20.40
2023-07-14T03:15:54.351Z,20.46
2023-07-14T03:18:21.088Z,20.25
2023-07-14T03:20:47.821Z,20.34
2023-07-14T03:23:14.734Z,20.57
2023-07-14T03:25:41.840Z,20.60
2023-07-14T03:28:08.456Z,20.34
2023-07-14T03:30:39.689Z,20.58
2023-07-14T03:33:06.321Z,20.74
2023-07-14T03:35:35.638Z,20.74
2023-07-14T03:38:04.801Z,20.44
2023-07-14T03:40:31.658Z,20.39
2023-07-14T03:42:58.304Z,20.14
2023-07-14T03:45:24.958Z,20.26
2023-07-14T03:47:51.684Z,20.44
2023-07-14T03:50:18.532Z,20.58
2023-07-14T03:52:45.129Z,20.68
2023-07-14T03:55:12.833Z,20.72
2023-07-14T03:57:52.818Z,20.62
2023-07-14T04:00:26.522Z,20.74
2023-07-14T04:02:53.230Z,20.69
2023-07-14T04:05:19.853Z,20.69
2023-07-14T04:07:46.581Z,20.60
2023-07-14T04:10:13.348Z,20.62
2023-07-14T04:12:40.263Z,20.76
2023-07-14T04:15:09.984Z,21.04
2023-07-14T04:17:37.486Z,21.04
2023-07-14T04:20:05.105Z,20.83
2023-07-14T04:22:32.565Z,21.11
2023-07-14T04:24:59.285Z,21.05
2023-07-14T04:27:27.662Z,21.14
2023-07-14T04:29:54.300Z,20.94
2023-07-14T04:32:21.024Z,21.10
2023-07-14T04:34:48.148Z,21.17
2023-07-14T04:37:14.760Z,21.13
2023-07-14T04:39:41.374Z,20.93
2023-07-14T04:42:08.158Z,20.89
2023-07-14T04:44:34.823Z,21.01
2023-07-14T04:47:01.512Z,20.99
2023-07-14T04:49:28.248Z,20.68
2023-07-14T04:51:54.854Z,20.48
2023-07-14T04:54:21.491Z,20.42
2023-07-14T04:56:48.122Z,20.38
2023-07-14T04:59:14.756Z,20.61
2023-07-14T05:01:41.501Z,20.53
2023-07-14T05:04:08.461Z,20.49
2023-07-14T05:06:35.112Z,20.40
2023-07-14T05:09:01.761Z,20.22
2023-07-14T05:11:28.926Z,20.30
2023-07-14T05:13:55.532Z,20.10
2023-07-14T05:16:22.462Z,20.40
2023-07-14T05:18:49.161Z,20.18
2023-07-14T05:21:16.201Z,20.11
2023-07-14T05:23:42.822Z,20.41
2023-07-14T05:26:09.499Z,20.27
2023-07-14T05:28:36.126Z,20.25
2023-07-14T05:31:04.678Z,20.15
2023-07-14T05:33:31.398Z,20.15
2023-07-14T05:35:58.043Z,20.23
2023-07-14T05:38:24.849Z,20.74
2023-07-14T05:40:57.792Z,21.20
2023-07-14T05:43:28.053Z,20.91
2023-07-14T05:45:54.920Z,20.58
2023-07-14T05:48:21.790Z,20.47
2023-07-14T05:50:48.969Z,20.87
2023-07-14T05:53:17.436Z,20.59
2023-07-14T05:55:44.167Z,20.78
2023-07-14T05:58:10.856Z,20.88
2023-07-14T06:00:39.835Z,20.86
2023-07-14T06:03:10.352Z,20.90
2023-07-14T06:05:37.088Z,20.97
2023-07-14T06:08:03.815Z,20.89
2023-07-14T06:10:30.516Z,20.91
2023-07-14T06:12:57.215Z,21.09
2023-07-14T06:15:23.868Z,21.03
2023-07-14T06:17:50.554Z,21.30
2023-07-14T06:20:17.293Z,21.31
2023-07-14T06:22:44.027Z,21.53
2023-07-14T06:25:10.752Z,21.33
2023-07-14T06:27:37.397Z,21.23
2023-07-14T06:30:04.416Z,21.30
2023-07-14T06:32:31.093Z,21.35
2023-07-14T06:34:57.837Z,21.68
2023-07-14T06:37:27.589Z,21.67
2023-07-14T06:39:54.719Z,21.71
2023-07-14T06:42:21.387Z,21.92
2023-07-14T06:44:48.065Z,21.90
2023-07-14T06:47:15.345Z,22.13
2023-07-14T06:49:42.492Z,22.18
2023-07-14T06:52:09.829Z,22.44
2023-07-14T06:54:36.508Z,22.16
2023-07-14T06:57:03.184Z,21.86
2023-07-14T06:59:29.895Z,21.80
2023-07-14T07:01:56.565Z,22.16
2023-07-14T07:04:23.322Z,21.83
2023-07-14T07:06:49.923Z,22.03
2023-07-14T07:09:16.552Z,22.16
2023-07-14T07:11:43.195Z,22.07
2023-07-14T07:14:09.881Z,22.14
2023-07-14T07:16:36.698Z,22.28
2023-07-14T07:19:03.366Z,22.46
2023-07-14T07:21:31.118Z,22.55
2023-07-14T07:23:58.114Z,22.64
2023-07-14T07:26:24.803Z,22.84
2023-07-14T07:28:51.466Z,23.04
2023-07-14T07:31:18.114Z,23.12
2023-07-14T07:33:44.963Z,23.34
2023-07-14T07:36:20.693Z,23.28
2023-07-14T07:38:50.890Z,23.51
2023-07-14T07:41:21.205Z,23.49
2023-07-14T07:43:47.939Z,23.51
2023-07-14T07:46:15.412Z,23.41
2023-07-14T07:48:43.843Z,23.84
2023-07-14T07:51:11.097Z,24.03
2023-07-14T07:53:37.757Z,24.37
2023-07-14T07:56:04.530Z,24.46
2023-07-14T07:58:31.391Z,24.36
2023-07-14T08:01:03.732Z,24.26
2023-07-14T08:03:31.038Z,24.36
2023-07-14T08:06:04.813Z,24.62
2023-07-14T08:08:31.786Z,23.88
2023-07-14T08:10:59.162Z,23.54
2023-07-14T08:13:25.885Z,23.65
2023-07-14T08:15:56.801Z,23.81
2023-07-14T08:18:24.327Z,24.53
2023-07-14T08:20:51.097Z,24.60
2023-07-14T08:23:20.199Z,24.80
2023-07-14T08:25:57.897Z,24.98
2023-07-14T08:28:27.420Z,25.34
2023-07-14T08:30:55.738Z,25.41
2023-07-14T08:33:23.801Z,25.31
2023-07-14T08:35:51.278Z,25.15
2023-07-14T08:38:18.202Z,25.29
2023-07-14T08:41:03.354Z,25.36
2023-07-14T08:43:57.804Z,25.36
2023-07-14T08:46:44.419Z,25.55
2023-07-14T08:49:27.439Z,25.72
2023-07-14T08:51:58.567Z,25.81
2023-07-14T08:54:28.745Z,25.49
2023-07-14T08:56:55.548Z,25.82
2023-07-14T08:59:31.200Z,26.02
2023-07-14T09:02:00.669Z,26.09
2023-07-14T09:04:33.620Z,26.38
2023-07-14T09:07:00.342Z,25.82
2023-07-14T09:09:34.472Z,25.92
2023-07-14T09:12:22.528Z,25.89
2023-07-14T09:15:12.145Z,25.70
2023-07-14T09:17:49.268Z,25.69
2023-07-14T09:20:30.236Z,25.97
2023-07-14T09:23:38.689Z,26.07
2023-07-14T09:26:15.048Z,25.97
2023-07-14T09:28:48.391Z,25.49
2023-07-14T09:31:38.881Z,25.33
2023-07-14T09:34:24.422Z,25.55
2023-07-14T09:36:53.018Z,25.77
2023-07-14T09:39:37.312Z,26.04
2023-07-14T09:42:10.515Z,26.04
2023-07-14T09:44:37.280Z,26.22
2023-07-14T09:47:06.522Z,26.25
2023-07-14T09:49:43.408Z,26.39
2023-07-14T09:52:13.734Z,26.78
2023-07-14T09:55:00.469Z,26.49
2023-07-14T09:57:40.341Z,26.67
2023-07-14T10:00:24.875Z,26.81
2023-07-14T10:03:02.881Z,27.03
2023-07-14T10:05:34.082Z,26.85
2023-07-14T10:08:00.933Z,26.83
2023-07-14T10:10:27.628Z,27.02
2023-07-14T10:12:54.627Z,27.08
2023-07-14T10:15:36.179Z,26.68
2023-07-14T10:18:14.032Z,27.01
2023-07-14T10:20:40.942Z,26.98
2023-07-14T10:23:17.807Z,27.15
2023-07-14T10:25:51.114Z,27.08
2023-07-14T10:28:23.532Z,27.04
2023-07-14T10:31:19.679Z,26.56
2023-07-14T10:34:06.141Z,26.74
2023-07-14T10:36:37.470Z,26.87
2023-07-14T10:39:20.051Z,26.72
2023-07-14T10:41:48.175Z,26.94
2023-07-14T10:44:30.160Z,26.81
2023-07-14T10:47:02.813Z,26.80
2023-07-14T10:50:00.700Z,27.10
2023-07-14T10:52:38.886Z,27.29
2023-07-14T10:55:22.212Z,27.77
2023-07-14T10:57:56.334Z,27.21
2023-07-14T11:00:26.878Z,27.22
2023-07-14T11:03:12.336Z,26.98
2023-07-14T11:05:39.521Z,26.80
2023-07-14T11:08:10.908Z,27.23
2023-07-14T11:10:48.627Z,27.19
2023-07-14T11:13:44.190Z,27.03
2023-07-14T11:16:34.561Z,27.16
2023-07-14T11:19:16.770Z,27.56
2023-07-14T11:21:50.262Z,27.32
2023-07-14T11:24:32.772Z,27.05
2023-07-14T11:27:19.854Z,27.02
2023-07-14T11:30:01.418Z,26.94
2023-07-14T11:32:45.175Z,27.41
2023-07-14T11:35:26.237Z,27.54
2023-07-14T11:38:11.533Z,27.93
2023-07-14T11:40:42.247Z,27.89
2023-07-14T11:43:15.973Z,27.94
2023-07-14T11:45:42.951Z,28.04
2023-07-14T11:48:23.636Z,28.02
2023-07-14T11:51:05.726Z,27.81
2023-07-14T11:53:36.428Z,27.81
2023-07-14T11:56:22.309Z,28.18
2023-07-14T11:58:52.990Z,28.52
2023-07-14T12:01:27.517Z,28.92
2023-07-14T12:03:54.998Z,28.90
2023-07-14T12:06:22.950Z,29.03
2023-07-14T12:09:12.387Z,28.82
2023-07-14T12:11:43.624Z,28.38
2023-07-14T12:14:30.663Z,28.56
2023-07-14T12:16:59.851Z,28.79
2023-07-14T12:19:30.795Z,28.72
2023-07-14T12:22:07.419Z,28.52
2023-07-14T12:25:00.503Z,28.44
2023-07-14T12:27:35.117Z,28.39
2023-07-14T12:30:16.944Z,28.51
2023-07-14T12:32:43.689Z,28.75
2023-07-14T12:35:18.692Z,29.21
2023-07-14T12:37:46.876Z,29.23
2023-07-14T12:40:16.558Z,29.18
2023-07-14T12:42:44.582Z,29.49
2023-07-14T12:45:17.635Z,29.47
2023-07-14T12:47:47.729Z,29.48
2023-07-14T12:50:21.432Z,29.43
2023-07-14T12:52:51.493Z,28.77
2023-07-14T12:55:20.661Z,28.47
2023-07-14T12:57:49.029Z,28.13
2023-07-14T13:00:20.117Z,28.09
2023-07-14T13:02:47.778Z,28.12
2023-07-14T13:05:18.391Z,27.59
2023-07-14T13:07:51.392Z,28.08
2023-07-14T13:10:41.021Z,28.66
2023-07-14T13:13:16.779Z,28.91
2023-07-14T13:15:43.764Z,28.95
2023-07-14T13:18:22.877Z,29.41
2023-07-14T13:20:49.547Z,29.46
2023-07-14T13:23:23.477Z,29.38
2023-07-14T13:26:12.048Z,29.67
2023-07-14T13:28:42.552Z,29.76
2023-07-14T13:31:21.668Z,29.34
2023-07-14T13:33:49.503Z,28.91
2023-07-14T13:36:32.751Z,28.58
2023-07-14T13:39:06.424Z,28.80
2023-07-14T13:41:33.052Z,28.93
2023-07-14T13:44:36.570Z,29.01
2023-07-14T13:47:20.421Z,29.01
2023-07-14T13:49:48.719Z,28.93
2023-07-14T13:52:18.384Z,29.29
2023-07-14T13:54:48.598Z,29.46
2023-07-14T13:57:15.301Z,29.20
2023-07-14T13:59:44.638Z,29.31
2023-07-14T14:02:52.685Z,29.47
2023-07-14T14:05:20.366Z,29.09
2023-07-14T14:07:48.588Z,29.53
2023-07-14T14:10:18.472Z,29.88
2023-07-14T14:12:45.632Z,29.83
2023-07-14T14:15:30.985Z,29.21
2023-07-14T14:18:05.644Z,29.29
2023-07-14T14:20:34.292Z,28.83
2023-07-14T14:23:02.031Z,28.62
2023-07-14T14:25:29.032Z,28.78
2023-07-14T14:27:55.726Z,28.20
2023-07-14T14:30:30.675Z,27.86
2023-07-14T14:32:58.088Z,28.15
2023-07-14T14:35:28.359Z,28.15
2023-07-14T14:37:56.197Z,28.31
2023-07-14T14:40:27.084Z,28.42
2023-07-14T14:43:01.820Z,28.29
2023-07-14T14:45:29.077Z,28.46
2023-07-14T14:47:55.705Z,28.95
2023-07-14T14:50:24.376Z,29.17
2023-07-14T14:52:51.875Z,29.17
2023-07-14T14:55:21.569Z,29.24
2023-07-14T14:57:52.491Z,29.27
2023-07-14T15:00:25.515Z,29.44
2023-07-14T15:02:52.902Z,29.53
2023-07-14T15:05:21.554Z,29.75
2023-07-14T15:07:49.652Z,29.69
2023-07-14T15:10:17.302Z,29.73
2023-07-14T15:12:46.065Z,29.80
2023-07-14T15:15:41.061Z,30.09
2023-07-14T15:18:11.940Z,30.08
2023-07-14T15:20:38.863Z,30.14
2023-07-14T15:23:09.028Z,29.81
2023-07-14T15:25:39.502Z,29.49
2023-07-14T15:28:09.064Z,28.72
2023-07-14T15:30:35.911Z,28.95
2023-07-14T15:33:04.421Z,28.88
2023-07-14T15:35:43.935Z,29.03
2023-07-14T15:38:20.706Z,28.61
2023-07-14T15:40:50.222Z,29.11
2023-07-14T15:43:20.275Z,29.14
2023-07-14T15:45:51.645Z,29.45
2023-07-14T15:48:40.997Z,29.36
2023-07-14T15:51:35.283Z,29.04
2023-07-14T15:54:05.319Z,29.04
2023-07-14T15:56:32.233Z,29.22
2023-07-14T15:59:01.731Z,29.01
2023-07-14T16:01:31.677Z,28.81
2023-07-14T16:04:02.691Z,28.93
2023-07-14T16:06:30.226Z,29.02
2023-07-14T16:08:57.180Z,28.96
2023-07-14T16:11:36.867Z,28.66
2023-07-14T16:14:05.708Z,28.53
2023-07-14T16:16:32.371Z,28.42
2023-07-14T16:18:59.065Z,29.03
2023-07-14T16:21:32.579Z,28.88
2023-07-14T16:24:00.250Z,28.87
2023-07-14T16:26:27.568Z,28.82
2023-07-14T16:28:55.970Z,28.96
2023-07-14T16:31:23.283Z,29.29
2023-07-14T16:33:50.049Z,28.94
2023-07-14T16:36:31.261Z,28.44
2023-07-14T16:39:02.237Z,28.30
2023-07-14T16:41:29.296Z,28.31
2023-07-14T16:43:55.892Z,28.47
2023-07-14T16:46:22.908Z,28.61
2023-07-14T16:48:49.560Z,28.37
2023-07-14T16:51:17.014Z,28.18
2023-07-14T16:53:43.668Z,28.11
2023-07-14T16:56:14.193Z,28.23
2023-07-14T16:58:41.251Z,28.65
2023-07-14T17:01:14.919Z,28.90
2023-07-14T17:03:41.636Z,28.88
2023-07-14T17:06:08.283Z,28.54
2023-07-14T17:08:35.568Z,28.68
2023-07-14T17:11:04.200Z,28.94
2023-07-14T17:13:31.025Z,28.26
2023-07-14T17:15:59.380Z,27.93
2023-07-14T17:18:29.177Z,28.54
2023-07-14T17:20:59.125Z,28.33
2023-07-14T17:23:37.119Z,28.57
2023-07-14T17:26:04.081Z,28.76
2023-07-14T17:28:30.676Z,28.28
2023-07-14T17:30:57.561Z,28.49
2023-07-14T17:33:26.225Z,28.40
2023-07-14T17:35:56.179Z,28.37
2023-07-14T17:38:28.494Z,28.40
2023-07-14T17:40:55.116Z,28.55
2023-07-14T17:43:21.849Z,28.50
2023-07-14T17:45:49.646Z,28.45
2023-07-14T17:48:17.061Z,28.08
2023-07-14T17:50:48.952Z,28.21
2023-07-14T17:53:25.908Z,28.05
2023-07-14T17:55:53.019Z,27.61
2023-07-14T17:58:21.790Z,27.78
2023-07-14T18:00:50.405Z,27.85
2023-07-14T18:03:24.648Z,27.99
2023-07-14T18:05:52.204Z,27.62
2023-07-14T18:08:20.639Z,27.86
2023-07-14T18:10:59.427Z,27.62
2023-07-14T18:13:34.028Z,27.46
2023-07-14T18:16:00.944Z,27.24
2023-07-14T18:18:27.613Z,27.14
2023-07-14T18:20:59.753Z,27.02
2023-07-14T18:23:29.460Z,26.86
2023-07-14T18:25:56.867Z,26.74
2023-07-14T18:28:26.079Z,26.75
2023-07-14T18:30:53.612Z,26.80
2023-07-14T18:33:24.949Z,26.65
2023-07-14T18:35:52.987Z,26.60
2023-07-14T18:38:19.684Z,26.73
2023-07-14T18:40:48.676Z,26.75
2023-07-14T18:43:24.990Z,26.63
2023-07-14T18:45:52.515Z,26.48
2023-07-14T18:48:22.072Z,26.37
2023-07-14T18:50:54.783Z,26.29
2023-07-14T18:53:23.564Z,26.40
2023-07-14T18:55:51.042Z,26.28
2023-07-14T18:58:20.355Z,26.22
2023-07-14T19:00:50.849Z,26.09
2023-07-14T19:03:30.226Z,26.01
2023-07-14T19:05:57.757Z,25.82
2023-07-14T19:08:25.211Z,25.74
2023-07-14T19:11:02.723Z,25.65
2023-07-14T19:13:36.727Z,25.60
2023-07-14T19:16:03.615Z,25.52
2023-07-14T19:18:30.416Z,25.52
2023-07-14T19:21:01.746Z,25.52
2023-07-14T19:23:28.903Z,25.46
2023-07-14T19:25:57.266Z,25.32
2023-07-14T19:28:26.212Z,25.26
2023-07-14T19:30:54.244Z,25.31
2023-07-14T19:33:23.836Z,25.30
2023-07-14T19:35:54.348Z,25.24
2023-07-14T19:38:21.228Z,25.24
2023-07-14T19:40:48.001Z,25.28
2023-07-14T19:43:17.766Z,25.30
2023-07-14T19:45:45.036Z,25.23
2023-07-14T19:48:16.711Z,25.27
2023-07-14T19:50:45.285Z,25.19
2023-07-14T19:53:27.879Z,25.08
2023-07-14T19:55:55.785Z,24.93
2023-07-14T19:58:23.503Z,24.92
2023-07-14T20:00:55.039Z,25.04
2023-07-14T20:03:26.496Z,25.04
2023-07-14T20:05:55.015Z,25.05
2023-07-14T20:08:27.292Z,25.10
2023-07-14T20:10:57.524Z,24.98
2023-07-14T20:13:28.574Z,24.94
2023-07-14T20:15:57.693Z,24.83
2023-07-14T20:18:26.790Z,24.72
2023-07-14T20:20:55.295Z,24.71
2023-07-14T20:23:24.523Z,24.60
2023-07-14T20:25:54.254Z,24.55
2023-07-14T20:28:39.192Z,24.47
2023-07-14T20:31:18.629Z,24.40
2023-07-14T20:33:50.152Z,24.26
2023-07-14T20:36:22.702Z,24.25
2023-07-14T20:38:50.301Z,24.26
2023-07-14T20:41:16.848Z,24.30
2023-07-14T20:43:43.462Z,24.23
2023-07-14T20:46:21.197Z,24.20
2023-07-14T20:48:55.708Z,24.05
2023-07-14T20:51:29.190Z,23.89
2023-07-14T20:53:56.012Z,23.94
2023-07-14T20:56:22.650Z,23.96
2023-07-14T20:58:49.266Z,23.98
2023-07-14T21:01:21.578Z,24.01
2023-07-14T21:03:51.282Z,23.97
2023-07-14T21:06:23.638Z,23.98
2023-07-14T21:08:52.094Z,23.89
2023-07-14T21:11:25.334Z,23.90
2023-07-14T21:13:54.954Z,23.85
2023-07-14T21:16:23.436Z,23.81
2023-07-14T21:18:50.696Z,23.76
2023-07-14T21:21:31.195Z,23.66
2023-07-14T21:23:59.306Z,23.50
2023-07-14T21:26:32.044Z,23.35
2023-07-14T21:29:01.199Z,23.39
2023-07-14T21:31:34.207Z,23.36
2023-07-14T21:34:01.290Z,23.35
2023-07-14T21:36:28.350Z,23.14
2023-07-14T21:38:57.548Z,23.15
2023-07-14T21:41:25.212Z,23.06
2023-07-14T21:43:55.212Z,23.08
2023-07-14T21:46:24.487Z,23.01
2023-07-14T21:48:51.255Z,23.02
2023-07-14T21:51:24.430Z,23.18
2023-07-14T21:53:53.418Z,23.34
2023-07-14T21:56:21.107Z,23.47
2023-07-14T21:58:47.860Z,23.45
2023-07-14T22:01:28.311Z,23.34
2023-07-14T22:03:56.868Z,23.28
2023-07-14T22:06:25.077Z,23.23
2023-07-14T22:08:51.758Z,23.12
2023-07-14T22:11:19.827Z,22.95
2023-07-14T22:13:46.448Z,22.81
2023-07-14T22:16:18.633Z,22.72
2023-07-14T22:18:47.624Z,22.73
2023-07-14T22:21:15.408Z,22.72
2023-07-14T22:23:42.043Z,22.83
2023-07-14T22:26:14.262Z,22.90
2023-07-14T22:28:41.837Z,23.03
2023-07-14T22:31:27.439Z,23.08
2023-07-14T22:33:56.079Z,23.12
2023-07-14T22:36:23.496Z,23.15
2023-07-14T22:38:50.335Z,23.11
2023-07-14T22:41:30.881Z,22.98
2023-07-14T22:44:02.893Z,22.96
2023-07-14T22:46:31.147Z,22.97
2023-07-14T22:48:59.040Z,22.86
2023-07-14T22:51:33.595Z,22.82
2023-07-14T22:54:02.175Z,22.92
2023-07-14T22:56:29.042Z,23.01
2023-07-14T22:58:55.782Z,22.98
2023-07-14T23:01:29.261Z,22.91
2023-07-14T23:03:56.716Z,23.00
2023-07-14T23:06:24.474Z,23.07
2023-07-14T23:08:53.148Z,22.93
2023-07-14T23:11:29.534Z,22.90
2023-07-14T23:13:56.467Z,22.88
2023-07-14T23:16:24.068Z,23.00
2023-07-14T23:18:50.795Z,22.92
2023-07-14T23:21:23.779Z,22.74
2023-07-14T23:23:52.205Z,22.71
2023-07-14T23:26:22.300Z,22.55
2023-07-14T23:28:49.217Z,22.54
2023-07-14T23:31:35.559Z,22.55
2023-07-14T23:34:11.879Z,22.42
2023-07-14T23:36:38.520Z,22.34
2023-07-14T23:39:05.213Z,22.34
2023-07-14T23:41:32.585Z,22.30
2023-07-14T23:44:00.939Z,22.24
2023-07-14T23:46:27.901Z,22.32
2023-07-14T23:48:54.593Z,22.37
2023-07-14T23:51:27.654Z,22.16
2023-07-14T23:53:54.654Z,21.81
2023-07-14T23:56:21.254Z,21.77
2023-07-14T23:58:47.875Z,21.75
